Time;durP1;ratioP1;P1;durP2;ratioP2;P2;SDS_P1;SDS_P2;PMS_P1;PMS_P2;Temp;Humidity;BMP_temperature;BMP_pressure;BME280_temperature;BME280_humidity;BME280_pressure;Samples;Min_cycle;Max_cycle;Signal;HPM_P1;HPM_P2
2023/08/31 00:00:22;;;;;;;17.60;8.18;;;;;;;;;;5035832;28;20021;-75
2023/08/31 00:02:47;;;;;;;11.80;6.57;;;;;;;;;;5036920;28;20044;-75
2023/08/31 00:05:13;;;;;;;11.07;5.65;;;;;;;;;;5037005;28;20087;-75
2023/08/31 00:07:38;;;;;;;11.40;6.10;;;;;;;;;;5019141;28;20075;-75
2023/08/31 00:10:09;;;;;;;8.20;5.00;;;;;;;;;;5035129;28;20048;-76
2023/08/31 00:12:36;;;;;;;11.45;5.80;;;;;;;;;;5036702;28;20029;-75
2023/08/31 00:15:01;;;;;;;11.23;6.07;;;;;;;;;;5035492;28;20022;-75
2023/08/31 00:17:27;;;;;;;9.30;5.40;;;;;;;;;;5018562;28;20025;-75
2023/08/31 00:19:52;;;;;;;11.82;5.68;;;;;;;;;;5034847;28;20377;-75
2023/08/31 00:22:17;;;;;;;9.32;5.80;;;;;;;;;;5036453;28;20036;-75
2023/08/31 00:24:43;;;;;;;13.27;6.22;;;;;;;;;;5036433;28;20018;-75
2023/08/31 00:27:10;;;;;;;10.23;5.38;;;;;;;;;;5035828;28;20413;-75
2023/08/31 00:29:36;;;;;;;11.15;5.57;;;;;;;;;;5036112;28;20060;-75
2023/08/31 00:32:03;;;;;;;10.35;5.90;;;;;;;;;;5036422;28;20086;-75
2023/08/31 00:34:28;;;;;;;12.10;6.43;;;;;;;;;;5035096;28;20029;-75
2023/08/31 00:36:53;;;;;;;14.10;6.15;;;;;;;;;;5035017;28;20076;-75
2023/08/31 00:39:20;;;;;;;12.68;6.25;;;;;;;;;;5036076;28;20029;-75
2023/08/31 00:41:46;;;;;;;12.52;6.32;;;;;;;;;;5035138;28;20055;-75
2023/08/31 00:44:11;;;;;;;13.68;6.32;;;;;;;;;;5034815;28;20088;-75
2023/08/31 00:46:37;;;;;;;10.80;6.05;;;;;;;;;;5034615;28;20483;-75
2023/08/31 00:49:03;;;;;;;10.02;6.03;;;;;;;;;;5035948;28;20029;-75
2023/08/31 00:51:29;;;;;;;12.13;6.88;;;;;;;;;;5036056;28;20479;-75
2023/08/31 00:53:55;;;;;;;13.80;5.50;;;;;;;;;;5018425;28;20017;-75
2023/08/31 00:56:20;;;;;;;8.57;4.95;;;;;;;;;;5033549;28;20025;-75
2023/08/31 00:58:46;;;;;;;9.98;5.07;;;;;;;;;;5045919;28;20037;-75
2023/08/31 01:01:18;;;;;;;8.38;4.68;;;;;;;;;;5034971;28;20032;-75
2023/08/31 01:03:57;;;;;;;9.63;5.35;;;;;;;;;;5034584;28;20026;-75
2023/08/31 01:06:44;;;;;;;8.88;4.65;;;;;;;;;;5018055;28;20024;-76
2023/08/31 01:09:33;;;;;;;10.27;4.43;;;;;;;;;;5047957;28;20069;-75
2023/08/31 01:12:11;;;;;;;10.48;4.50;;;;;;;;;;5037291;28;20432;-75
2023/08/31 01:14:48;;;;;;;11.48;4.70;;;;;;;;;;5037790;28;20025;-75
2023/08/31 01:17:14;;;;;;;6.85;3.95;;;;;;;;;;5037558;28;20024;-75
2023/08/31 01:19:54;;;;;;;9.25;4.60;;;;;;;;;;5037059;28;20029;-75
2023/08/31 01:22:42;;;;;;;10.38;5.20;;;;;;;;;;5037441;28;20025;-76
2023/08/31 01:25:09;;;;;;;10.38;5.70;;;;;;;;;;5037992;28;20441;-75
2023/08/31 01:27:34;;;;;;;11.30;4.53;;;;;;;;;;5053294;28;20021;-75
2023/08/31 01:30:00;;;;;;;9.15;5.00;;;;;;;;;;5037078;28;20028;-75
2023/08/31 01:32:25;;;;;;;8.48;4.38;;;;;;;;;;5053582;28;20024;-75
2023/08/31 01:34:53;;;;;;;10.38;4.10;;;;;;;;;;5053832;28;20049;-75
2023/08/31 01:37:27;;;;;;;5.35;3.42;;;;;;;;;;5037169;28;20074;-75
2023/08/31 01:39:59;;;;;;;8.88;3.78;;;;;;;;;;5036930;28;20025;-75
2023/08/31 01:42:26;;;;;;;6.32;3.53;;;;;;;;;;5036420;28;20448;-75
2023/08/31 01:44:51;;;;;;;5.63;3.40;;;;;;;;;;5020566;28;20021;-75
2023/08/31 01:47:19;;;;;;;8.50;5.07;;;;;;;;;;5054226;28;20390;-75
2023/08/31 01:49:44;;;;;;;9.10;3.92;;;;;;;;;;5053438;28;20032;-75
2023/08/31 01:52:09;;;;;;;8.63;5.68;;;;;;;;;;5049792;28;20403;-75
2023/08/31 01:54:37;;;;;;;7.47;4.88;;;;;;;;;;5053407;28;20383;-75
2023/08/31 01:57:02;;;;;;;7.72;4.07;;;;;;;;;;5054392;28;20017;-75
2023/08/31 01:59:28;;;;;;;7.15;3.58;;;;;;;;;;5045263;28;20027;-75
2023/08/31 02:01:53;;;;;;;8.63;3.72;;;;;;;;;;5034375;28;20033;-75
2023/08/31 02:04:18;;;;;;;6.05;3.28;;;;;;;;;;5042600;28;20041;-75
2023/08/31 02:06:44;;;;;;;6.03;3.20;;;;;;;;;;5053906;28;20502;-75
2023/08/31 02:09:09;;;;;;;8.00;3.10;;;;;;;;;;5038647;28;20514;-75
2023/08/31 02:11:37;;;;;;;6.32;3.00;;;;;;;;;;5016708;28;20507;-75
2023/08/31 02:14:07;;;;;;;8.30;3.42;;;;;;;;;;5042621;28;20021;-75
2023/08/31 02:16:32;;;;;;;4.70;3.00;;;;;;;;;;5036256;28;20032;-75
2023/08/31 02:18:58;;;;;;;4.95;2.80;;;;;;;;;;5053670;28;20028;-75
2023/08/31 02:21:24;;;;;;;5.82;3.70;;;;;;;;;;5031663;28;20017;-75
2023/08/31 02:23:49;;;;;;;7.30;3.40;;;;;;;;;;5054261;28;20162;-75
2023/08/31 02:26:14;;;;;;;5.32;3.00;;;;;;;;;;5053881;28;20085;-75
2023/08/31 02:28:39;;;;;;;7.75;4.55;;;;;;;;;;5052788;28;20376;-75
2023/08/31 02:31:05;;;;;;;4.75;2.75;;;;;;;;;;5053732;28;20493;-75
2023/08/31 02:33:30;;;;;;;5.30;2.80;;;;;;;;;;5027830;28;20056;-76
2023/08/31 02:35:55;;;;;;;3.95;2.30;;;;;;;;;;5049391;28;20051;-75
2023/08/31 02:38:21;;;;;;;6.35;2.63;;;;;;;;;;5035457;28;20040;-75
2023/08/31 02:40:47;;;;;;;4.13;2.70;;;;;;;;;;5051882;28;20029;-76
2023/08/31 02:43:13;;;;;;;6.28;3.30;;;;;;;;;;5036059;28;20029;-75
2023/08/31 02:45:38;;;;;;;5.18;2.80;;;;;;;;;;5036128;28;20402;-75
2023/08/31 02:48:06;;;;;;;3.70;2.20;;;;;;;;;;5051943;28;20483;-75
2023/08/31 02:50:31;;;;;;;4.03;2.25;;;;;;;;;;5053814;28;20036;-75
2023/08/31 02:52:57;;;;;;;4.13;2.40;;;;;;;;;;5053134;28;20029;-75
2023/08/31 02:55:22;;;;;;;4.57;2.88;;;;;;;;;;5053060;28;20479;-75
2023/08/31 02:57:48;;;;;;;5.75;2.67;;;;;;;;;;5052517;28;20027;-75
2023/08/31 03:00:13;;;;;;;8.20;3.10;;;;;;;;;;5053483;28;20066;-75
2023/08/31 03:02:39;;;;;;;6.25;3.35;;;;;;;;;;5036731;28;20497;-75
2023/08/31 03:05:05;;;;;;;4.85;2.83;;;;;;;;;;5052153;28;20032;-75
2023/08/31 03:07:30;;;;;;;3.67;2.30;;;;;;;;;;5053561;28;20017;-75
2023/08/31 03:09:55;;;;;;;4.82;2.55;;;;;;;;;;5053572;28;20491;-75
2023/08/31 03:12:20;;;;;;;7.28;3.85;;;;;;;;;;5052914;28;20036;-75
2023/08/31 03:14:46;;;;;;;3.90;2.30;;;;;;;;;;5051955;28;20462;-75
2023/08/31 03:17:11;;;;;;;5.03;2.80;;;;;;;;;;5052962;28;20052;-75
2023/08/31 03:19:36;;;;;;;7.15;2.67;;;;;;;;;;5053142;28;20017;-75
2023/08/31 03:22:02;;;;;;;4.95;2.80;;;;;;;;;;5052358;28;20021;-75
2023/08/31 03:24:27;;;;;;;5.00;2.78;;;;;;;;;;5052577;28;20123;-75
2023/08/31 03:26:52;;;;;;;5.93;3.40;;;;;;;;;;5053300;28;20120;-75
2023/08/31 03:29:18;;;;;;;10.88;3.88;;;;;;;;;;5053180;28;20044;-76
2023/08/31 03:31:43;;;;;;;9.77;4.00;;;;;;;;;;5052181;28;20029;-75
2023/08/31 03:34:08;;;;;;;8.20;3.38;;;;;;;;;;5052984;28;20017;-75
2023/08/31 03:36:33;;;;;;;6.93;3.40;;;;;;;;;;5052856;28;20017;-75
2023/08/31 03:38:59;;;;;;;4.45;2.85;;;;;;;;;;5052747;28;20542;-75
2023/08/31 03:41:24;;;;;;;6.72;3.20;;;;;;;;;;5035255;28;20445;-75
2023/08/31 03:43:50;;;;;;;7.97;4.22;;;;;;;;;;5052531;28;20029;-75
2023/08/31 03:46:15;;;;;;;6.80;3.33;;;;;;;;;;5053193;28;20187;-75
2023/08/31 03:48:40;;;;;;;6.90;4.82;;;;;;;;;;5053185;28;20112;-76
2023/08/31 03:51:06;;;;;;;6.25;3.45;;;;;;;;;;5051582;28;20024;-76
2023/08/31 03:53:31;;;;;;;8.80;3.78;;;;;;;;;;5053123;28;20467;-75
2023/08/31 03:55:56;;;;;;;6.50;3.88;;;;;;;;;;5035307;28;20104;-75
2023/08/31 03:58:21;;;;;;;10.23;3.53;;;;;;;;;;5018126;28;20038;-75
2023/08/31 04:00:50;;;;;;;7.38;3.83;;;;;;;;;;5032932;28;20041;-76
2023/08/31 04:03:15;;;;;;;6.00;3.60;;;;;;;;;;5033868;28;20100;-75
2023/08/31 04:05:41;;;;;;;7.80;3.30;;;;;;;;;;5033651;28;20125;-75
2023/08/31 04:08:06;;;;;;;8.38;3.55;;;;;;;;;;5036063;28;20057;-75
2023/08/31 04:10:32;;;;;;;5.25;3.15;;;;;;;;;;5018867;28;20028;-75
2023/08/31 04:12:57;;;;;;;6.47;2.90;;;;;;;;;;5038239;28;20083;-75
2023/08/31 04:15:23;;;;;;;5.90;3.08;;;;;;;;;;5055355;28;20031;-75
2023/08/31 04:17:49;;;;;;;7.15;2.80;;;;;;;;;;5055092;28;20108;-76
2023/08/31 04:20:15;;;;;;;4.95;2.38;;;;;;;;;;5055543;28;20032;-76
2023/08/31 04:22:40;;;;;;;6.57;2.80;;;;;;;;;;5052209;28;20024;-76
2023/08/31 04:25:06;;;;;;;5.40;2.40;;;;;;;;;;5038017;28;20116;-76
2023/08/31 04:27:32;;;;;;;4.70;3.15;;;;;;;;;;5040519;28;20482;-75
2023/08/31 04:30:00;;;;;;;4.97;2.85;;;;;;;;;;5035125;28;20017;-76
2023/08/31 04:32:26;;;;;;;7.38;2.40;;;;;;;;;;5036343;28;20076;-75
2023/08/31 04:34:51;;;;;;;7.40;3.28;;;;;;;;;;5034945;28;20060;-76
2023/08/31 04:37:17;;;;;;;8.10;3.13;;;;;;;;;;5051013;28;20086;-75
2023/08/31 04:39:42;;;;;;;3.67;2.30;;;;;;;;;;5055640;28;20025;-75
2023/08/31 04:42:08;;;;;;;8.30;2.22;;;;;;;;;;5056388;28;20029;-75
2023/08/31 04:44:33;;;;;;;6.45;2.13;;;;;;;;;;5037800;28;20122;-76
2023/08/31 04:46:59;;;;;;;7.78;2.92;;;;;;;;;;5055814;28;20071;-76
2023/08/31 04:49:24;;;;;;;5.43;2.22;;;;;;;;;;5054396;28;20083;-76
2023/08/31 04:51:49;;;;;;;3.97;1.90;;;;;;;;;;5055319;28;20085;-76
2023/08/31 04:54:15;;;;;;;6.28;2.85;;;;;;;;;;5056186;28;20391;-75
2023/08/31 04:56:40;;;;;;;5.60;2.25;;;;;;;;;;5055474;28;20021;-76
2023/08/31 04:59:05;;;;;;;4.43;2.08;;;;;;;;;;5055218;28;20033;-76
2023/08/31 05:01:31;;;;;;;4.38;1.70;;;;;;;;;;5037795;28;20025;-76
2023/08/31 05:03:56;;;;;;;8.52;2.97;;;;;;;;;;5055581;28;20399;-75
2023/08/31 05:06:21;;;;;;;8.25;2.90;;;;;;;;;;5052947;28;20437;-76
2023/08/31 05:08:50;;;;;;;7.88;2.10;;;;;;;;;;5049249;28;20029;-76
2023/08/31 05:11:15;;;;;;;4.97;1.90;;;;;;;;;;5053469;28;20518;-76
2023/08/31 05:13:43;;;;;;;5.15;2.20;;;;;;;;;;5037551;28;20029;-75
2023/08/31 05:16:09;;;;;;;4.00;2.45;;;;;;;;;;5017621;28;20082;-75
2023/08/31 05:18:34;;;;;;;9.38;2.10;;;;;;;;;;5035554;28;20021;-76
2023/08/31 05:20:59;;;;;;;5.00;2.00;;;;;;;;;;5036620;28;20040;-75
2023/08/31 05:23:25;;;;;;;8.18;2.15;;;;;;;;;;5036441;28;20017;-75
2023/08/31 05:25:50;;;;;;;5.63;2.15;;;;;;;;;;5017765;28;20026;-75
2023/08/31 05:28:15;;;;;;;5.57;2.45;;;;;;;;;;5033964;28;20583;-76
2023/08/31 05:30:51;;;;;;;6.55;2.30;;;;;;;;;;5034693;28;20025;-75
2023/08/31 05:33:20;;;;;;;10.98;2.60;;;;;;;;;;5017492;28;20024;-75
2023/08/31 05:35:45;;;;;;;4.50;2.00;;;;;;;;;;5035213;28;20022;-75
2023/08/31 05:38:11;;;;;;;6.43;2.00;;;;;;;;;;5033778;28;20124;-75
2023/08/31 05:40:36;;;;;;;5.90;2.15;;;;;;;;;;5033458;28;20025;-75
2023/08/31 05:43:03;;;;;;;3.97;1.60;;;;;;;;;;5035339;28;20025;-75
2023/08/31 05:45:32;;;;;;;6.40;3.17;;;;;;;;;;5017522;28;20025;-75
2023/08/31 05:47:57;;;;;;;6.32;2.10;;;;;;;;;;5034871;28;20023;-75
2023/08/31 05:50:22;;;;;;;4.28;2.00;;;;;;;;;;5034058;28;20104;-75
2023/08/31 05:52:48;;;;;;;4.57;2.15;;;;;;;;;;5016893;28;20476;-75
2023/08/31 05:55:13;;;;;;;4.63;2.42;;;;;;;;;;5033785;28;20029;-74
2023/08/31 05:57:38;;;;;;;3.95;2.30;;;;;;;;;;5034748;28;20068;-74
2023/08/31 06:00:07;;;;;;;4.13;1.80;;;;;;;;;;5033912;28;20039;-74
2023/08/31 06:02:32;;;;;;;5.18;2.00;;;;;;;;;;5018400;28;20028;-74
2023/08/31 06:04:57;;;;;;;4.25;2.00;;;;;;;;;;5034844;28;20033;-75
2023/08/31 06:07:23;;;;;;;5.85;2.10;;;;;;;;;;5033721;28;20029;-75
2023/08/31 06:09:48;;;;;;;4.63;2.13;;;;;;;;;;5033709;28;20021;-75
2023/08/31 06:12:13;;;;;;;4.75;1.55;;;;;;;;;;5033581;28;20025;-75
2023/08/31 06:14:39;;;;;;;7.20;1.98;;;;;;;;;;5016832;28;20019;-75
2023/08/31 06:17:04;;;;;;;5.72;1.90;;;;;;;;;;5034107;28;20029;-75
2023/08/31 06:19:29;;;;;;;3.53;2.10;;;;;;;;;;5034291;28;20029;-75
2023/08/31 06:21:55;;;;;;;6.18;2.40;;;;;;;;;;5016694;28;20053;-76
2023/08/31 06:24:20;;;;;;;6.07;1.88;;;;;;;;;;5034277;28;20029;-75
2023/08/31 06:26:45;;;;;;;2.97;1.73;;;;;;;;;;5033716;28;20141;-75
2023/08/31 06:29:11;;;;;;;5.20;2.17;;;;;;;;;;5033916;28;20483;-75
2023/08/31 06:31:36;;;;;;;7.63;2.15;;;;;;;;;;5034196;28;20033;-75
2023/08/31 06:34:02;;;;;;;4.40;2.38;;;;;;;;;;5033203;28;20021;-75
2023/08/31 06:36:27;;;;;;;8.13;2.25;;;;;;;;;;5034069;28;20041;-75
2023/08/31 06:38:52;;;;;;;4.75;2.00;;;;;;;;;;5033306;28;20029;-75
2023/08/31 06:41:18;;;;;;;4.63;2.55;;;;;;;;;;5034091;28;20017;-75
2023/08/31 06:43:43;;;;;;;7.68;2.55;;;;;;;;;;5032769;28;20025;-76
2023/08/31 06:46:08;;;;;;;3.85;2.05;;;;;;;;;;5016220;28;20030;-75
2023/08/31 06:48:34;;;;;;;4.82;2.40;;;;;;;;;;5033942;28;20116;-76
2023/08/31 06:50:59;;;;;;;5.40;2.47;;;;;;;;;;5016266;28;20032;-75
2023/08/31 06:53:24;;;;;;;4.90;2.30;;;;;;;;;;5016251;28;20022;-75
2023/08/31 06:55:50;;;;;;;6.97;2.15;;;;;;;;;;5016159;28;20067;-76
2023/08/31 06:58:15;;;;;;;9.15;2.47;;;;;;;;;;5026686;28;20040;-76
2023/08/31 07:00:40;;;;;;;3.78;2.13;;;;;;;;;;5046047;28;20044;-76
2023/08/31 07:03:06;;;;;;;3.83;1.90;;;;;;;;;;5037654;28;20067;-76
2023/08/31 07:05:35;;;;;;;12.32;2.28;;;;;;;;;;5052044;28;20029;-76
2023/08/31 07:08:00;;;;;;;6.25;1.90;;;;;;;;;;5052504;28;20036;-75
2023/08/31 07:10:25;;;;;;;2.92;1.98;;;;;;;;;;5035294;28;20036;-75
2023/08/31 07:12:51;;;;;;;5.15;1.60;;;;;;;;;;5052352;28;20045;-75
2023/08/31 07:15:16;;;;;;;4.95;1.70;;;;;;;;;;5052347;28;20433;-74
2023/08/31 07:17:41;;;;;;;5.05;1.50;;;;;;;;;;5051758;28;20020;-75
2023/08/31 07:20:07;;;;;;;3.90;1.65;;;;;;;;;;5053288;28;20036;-75
2023/08/31 07:22:34;;;;;;;4.65;1.70;;;;;;;;;;5036045;28;20025;-72
2023/08/31 07:24:59;;;;;;;5.00;2.00;;;;;;;;;;5035856;28;20031;-72
2023/08/31 07:27:24;;;;;;;5.93;2.00;;;;;;;;;;5053395;28;20024;-73
2023/08/31 07:29:50;;;;;;;4.90;1.58;;;;;;;;;;5052628;28;20032;-72
2023/08/31 07:32:15;;;;;;;2.65;1.38;;;;;;;;;;5034969;28;20025;-73
2023/08/31 07:34:40;;;;;;;4.57;1.63;;;;;;;;;;5052331;28;20479;-72
2023/08/31 07:37:06;;;;;;;4.25;1.80;;;;;;;;;;5053162;28;20032;-72
2023/08/31 07:39:31;;;;;;;4.32;1.70;;;;;;;;;;5053670;28;20029;-73
2023/08/31 07:41:57;;;;;;;2.53;1.52;;;;;;;;;;5056283;28;20025;-72
2023/08/31 07:44:23;;;;;;;3.38;1.75;;;;;;;;;;5039188;28;20090;-72
2023/08/31 07:46:48;;;;;;;3.85;1.50;;;;;;;;;;5057177;28;20421;-73
2023/08/31 07:49:14;;;;;;;7.22;2.15;;;;;;;;;;5057156;28;20017;-73
2023/08/31 07:51:39;;;;;;;4.72;1.90;;;;;;;;;;5057281;28;20059;-72
2023/08/31 07:54:05;;;;;;;2.90;1.40;;;;;;;;;;5039313;28;20021;-73
2023/08/31 07:56:30;;;;;;;6.00;1.92;;;;;;;;;;5055415;28;20017;-73
2023/08/31 07:58:55;;;;;;;3.50;1.48;;;;;;;;;;5039130;28;20485;-72
2023/08/31 08:01:21;;;;;;;3.97;1.58;;;;;;;;;;5037140;28;20422;-73
2023/08/31 08:03:46;;;;;;;3.55;1.48;;;;;;;;;;5052160;28;20033;-73
2023/08/31 08:06:11;;;;;;;9.65;2.28;;;;;;;;;;5051924;28;20052;-72
2023/08/31 08:08:37;;;;;;;4.80;1.85;;;;;;;;;;5052186;28;20021;-72
2023/08/31 08:11:04;;;;;;;8.13;1.55;;;;;;;;;;5036855;28;20037;-73
2023/08/31 08:13:29;;;;;;;7.43;2.00;;;;;;;;;;5054322;28;20027;-73
2023/08/31 08:15:54;;;;;;;8.38;1.50;;;;;;;;;;5056429;28;20025;-73
2023/08/31 08:18:20;;;;;;;6.80;1.50;;;;;;;;;;5056018;28;20025;-77
2023/08/31 08:20:54;;;;;;;5.18;1.63;;;;;;;;;;5037907;28;20029;-75
2023/08/31 08:23:21;;;;;;;2.80;2.20;;;;;;;;;;5022509;28;20367;-75
2023/08/31 08:25:47;;;;;;;3.88;1.92;;;;;;;;;;5038695;28;20029;-73
2023/08/31 08:28:12;;;;;;;2.58;1.35;;;;;;;;;;5038130;28;20029;-72
2023/08/31 08:30:37;;;;;;;4.85;1.55;;;;;;;;;;5038021;28;20114;-72
2023/08/31 08:33:03;;;;;;;2.47;1.50;;;;;;;;;;5055875;28;20028;-72
2023/08/31 08:35:28;;;;;;;3.63;1.55;;;;;;;;;;5055591;28;20033;-72
2023/08/31 08:37:53;;;;;;;4.18;1.80;;;;;;;;;;5054305;28;20040;-72
2023/08/31 08:40:19;;;;;;;2.85;1.70;;;;;;;;;;5055765;28;20418;-74
2023/08/31 08:42:46;;;;;;;1.98;1.13;;;;;;;;;;5055725;28;20113;-74
2023/08/31 08:45:15;;;;;;;3.65;1.55;;;;;;;;;;5037532;28;20390;-74
2023/08/31 08:47:42;;;;;;;6.22;1.73;;;;;;;;;;5021250;28;20029;-75
2023/08/31 08:50:07;;;;;;;3.30;1.80;;;;;;;;;;5049356;28;20614;-75
2023/08/31 08:52:33;;;;;;;3.10;1.27;;;;;;;;;;5027010;28;20040;-74
2023/08/31 08:55:00;;;;;;;7.38;1.48;;;;;;;;;;5020958;28;20020;-74
2023/08/31 08:57:26;;;;;;;3.28;1.40;;;;;;;;;;5037222;28;20029;-75
2023/08/31 08:59:51;;;;;;;4.03;1.77;;;;;;;;;;5055454;28;20021;-74
2023/08/31 09:02:16;;;;;;;3.78;1.60;;;;;;;;;;5055884;28;20098;-74
2023/08/31 09:04:41;;;;;;;3.30;1.60;;;;;;;;;;5055354;28;20447;-74
2023/08/31 09:07:07;;;;;;;2.33;1.15;;;;;;;;;;5055990;28;20021;-74
2023/08/31 09:09:32;;;;;;;2.10;1.20;;;;;;;;;;5055977;28;20427;-74
2023/08/31 09:12:06;;;;;;;3.00;1.20;;;;;;;;;;5055064;28;20032;-74
2023/08/31 09:14:31;;;;;;;4.72;1.30;;;;;;;;;;5054315;28;20017;-74
2023/08/31 09:16:57;;;;;;;4.45;1.13;;;;;;;;;;5036602;28;20047;-75
2023/08/31 09:19:23;;;;;;;3.15;1.80;;;;;;;;;;5036071;28;20029;-74
2023/08/31 09:21:50;;;;;;;2.72;1.70;;;;;;;;;;5037045;28;20075;-74
2023/08/31 09:24:17;;;;;;;2.78;1.40;;;;;;;;;;5037227;28;20025;-73
2023/08/31 09:26:48;;;;;;;2.97;1.38;;;;;;;;;;5054258;28;20025;-73
2023/08/31 09:29:13;;;;;;;2.85;1.67;;;;;;;;;;5037002;28;20025;-74
2023/08/31 09:31:42;;;;;;;2.45;1.30;;;;;;;;;;5036950;28;20031;-73
2023/08/31 09:34:07;;;;;;;3.42;1.30;;;;;;;;;;5052436;28;20028;-74
2023/08/31 09:36:33;;;;;;;2.97;1.55;;;;;;;;;;5053834;28;20076;-74
2023/08/31 09:38:58;;;;;;;2.08;1.35;;;;;;;;;;5036919;28;20385;-74
2023/08/31 09:41:24;;;;;;;2.90;1.45;;;;;;;;;;5036829;28;20028;-74
2023/08/31 09:43:49;;;;;;;1.75;1.20;;;;;;;;;;5036663;28;20032;-74
2023/08/31 09:46:15;;;;;;;2.30;1.52;;;;;;;;;;5034852;28;20028;-74
2023/08/31 09:48:41;;;;;;;2.45;1.42;;;;;;;;;;5036551;28;20017;-74
2023/08/31 09:51:07;;;;;;;2.35;1.25;;;;;;;;;;5020087;28;20059;-74
2023/08/31 09:53:36;;;;;;;3.15;1.52;;;;;;;;;;5036609;28;20020;-74
2023/08/31 09:56:02;;;;;;;4.28;1.35;;;;;;;;;;5036602;28;20021;-75
2023/08/31 09:58:28;;;;;;;2.55;1.10;;;;;;;;;;5019303;28;20024;-74
2023/08/31 10:00:54;;;;;;;2.47;1.42;;;;;;;;;;5054236;28;20025;-73
2023/08/31 10:03:20;;;;;;;2.22;1.35;;;;;;;;;;5052004;28;20025;-73
2023/08/31 10:05:49;;;;;;;2.25;1.20;;;;;;;;;;5036080;28;20029;-74
2023/08/31 10:08:15;;;;;;;1.73;1.13;;;;;;;;;;5053598;28;20028;-75
2023/08/31 10:10:41;;;;;;;2.13;1.33;;;;;;;;;;5035827;28;20021;-74
2023/08/31 10:13:06;;;;;;;3.35;1.40;;;;;;;;;;5035580;28;20104;-74
2023/08/31 10:15:33;;;;;;;3.30;1.27;;;;;;;;;;5062508;28;20030;-74
2023/08/31 10:17:59;;;;;;;1.90;1.08;;;;;;;;;;5052310;28;20423;-74
2023/08/31 10:20:28;;;;;;;2.88;1.08;;;;;;;;;;5053217;28;20056;-73
2023/08/31 10:22:53;;;;;;;1.17;0.75;;;;;;;;;;5053647;28;20100;-73
2023/08/31 10:25:19;;;;;;;1.27;0.93;;;;;;;;;;5052838;28;20116;-74
2023/08/31 10:27:50;;;;;;;3.33;1.33;;;;;;;;;;5052419;28;20024;-74
2023/08/31 10:30:21;;;;;;;2.05;0.90;;;;;;;;;;5051097;28;20048;-74
2023/08/31 10:33:22;;;;;;;3.20;1.45;;;;;;;;;;5053332;28;20024;-73
2023/08/31 10:35:47;;;;;;;3.20;1.15;;;;;;;;;;5052028;28;20041;-72
2023/08/31 10:38:23;;;;;;;5.20;1.67;;;;;;;;;;5051546;28;20029;-72
2023/08/31 10:41:07;;;;;;;2.22;1.55;;;;;;;;;;5035357;28;20399;-73
2023/08/31 10:43:46;;;;;;;5.88;1.50;;;;;;;;;;5052925;28;20028;-74
2023/08/31 10:46:28;;;;;;;1.80;1.00;;;;;;;;;;5034833;28;20117;-72
2023/08/31 10:48:57;;;;;;;3.15;1.10;;;;;;;;;;5035421;28;20029;-72
2023/08/31 10:51:27;;;;;;;2.03;1.15;;;;;;;;;;5035806;28;20086;-72
2023/08/31 10:54:18;;;;;;;2.40;1.05;;;;;;;;;;5035569;28;20048;-72
2023/08/31 10:57:08;;;;;;;3.55;1.40;;;;;;;;;;5053261;28;20074;-72
2023/08/31 10:59:50;;;;;;;1.40;0.95;;;;;;;;;;5052796;28;20025;-72
2023/08/31 11:02:37;;;;;;;6.80;1.58;;;;;;;;;;5035063;28;20386;-74
2023/08/31 11:05:09;;;;;;;3.15;1.40;;;;;;;;;;5016728;28;20384;-75
2023/08/31 11:07:35;;;;;;;2.00;0.88;;;;;;;;;;5050944;28;20032;-74
2023/08/31 11:10:10;;;;;;;3.90;1.60;;;;;;;;;;5030509;28;20017;-74
2023/08/31 11:12:36;;;;;;;2.13;1.23;;;;;;;;;;5046799;28;20036;-74
2023/08/31 11:15:03;;;;;;;5.88;1.55;;;;;;;;;;5026626;28;20021;-72
2023/08/31 11:17:29;;;;;;;1.95;1.25;;;;;;;;;;5055531;28;20154;-72
2023/08/31 11:19:54;;;;;;;3.42;1.10;;;;;;;;;;5038588;28;20096;-72
2023/08/31 11:22:20;;;;;;;1.88;0.98;;;;;;;;;;5039447;28;20033;-72
2023/08/31 11:24:46;;;;;;;2.55;1.10;;;;;;;;;;5039014;28;20099;-72
2023/08/31 11:27:11;;;;;;;2.10;1.10;;;;;;;;;;5038983;28;20035;-72
2023/08/31 11:29:39;;;;;;;1.55;0.90;;;;;;;;;;5056853;28;20020;-72
2023/08/31 11:32:04;;;;;;;2.00;1.20;;;;;;;;;;5055961;28;20021;-73
2023/08/31 11:34:30;;;;;;;5.10;1.15;;;;;;;;;;5056886;28;20020;-72
2023/08/31 11:36:55;;;;;;;3.00;1.23;;;;;;;;;;5055197;28;20029;-73
2023/08/31 11:39:20;;;;;;;3.28;1.23;;;;;;;;;;5056796;28;20021;-72
2023/08/31 11:41:46;;;;;;;2.78;1.52;;;;;;;;;;5056816;28;20028;-72
2023/08/31 11:44:13;;;;;;;3.75;1.27;;;;;;;;;;5069199;23;20052;-73
2023/08/31 11:46:39;;;;;;;1.90;1.00;;;;;;;;;;5058201;28;20083;-73
2023/08/31 11:49:05;;;;;;;1.83;1.30;;;;;;;;;;5057582;28;20091;-73
2023/08/31 11:51:32;;;;;;;3.03;1.30;;;;;;;;;;5075430;28;20012;-73
2023/08/31 11:53:59;;;;;;;3.15;1.30;;;;;;;;;;5046561;28;20018;-73
2023/08/31 11:56:24;;;;;;;3.28;1.30;;;;;;;;;;5050528;28;20032;-73
2023/08/31 11:58:53;;;;;;;3.15;1.30;;;;;;;;;;5064578;28;20028;-73
2023/08/31 12:01:20;;;;;;;1.60;0.93;;;;;;;;;;5076034;28;20103;-73
2023/08/31 12:03:47;;;;;;;2.63;1.75;;;;;;;;;;5074460;28;20379;-73
2023/08/31 12:06:15;;;;;;;2.47;1.10;;;;;;;;;;5075700;28;20032;-73
2023/08/31 12:08:40;;;;;;;2.90;1.70;;;;;;;;;;5074323;28;20409;-73
2023/08/31 12:11:08;;;;;;;2.05;1.05;;;;;;;;;;5076334;28;20021;-73
2023/08/31 12:13:34;;;;;;;4.25;1.50;;;;;;;;;;5076134;28;20024;-73
2023/08/31 12:16:01;;;;;;;1.98;1.02;;;;;;;;;;5075792;28;20478;-73
2023/08/31 12:18:30;;;;;;;3.13;1.58;;;;;;;;;;5074068;28;20371;-73
2023/08/31 12:20:55;;;;;;;2.42;1.30;;;;;;;;;;5075875;28;20020;-73
2023/08/31 12:23:23;;;;;;;2.30;1.92;;;;;;;;;;5074528;28;20036;-73
2023/08/31 12:25:50;;;;;;;3.20;1.27;;;;;;;;;;5075146;28;20029;-73
2023/08/31 12:28:20;;;;;;;2.03;1.30;;;;;;;;;;5074418;28;20028;-73
2023/08/31 12:30:56;;;;;;;1.85;1.13;;;;;;;;;;5074599;28;20025;-72
2023/08/31 12:33:22;;;;;;;2.40;1.10;;;;;;;;;;5073680;28;20024;-72
2023/08/31 12:35:47;;;;;;;1.70;1.20;;;;;;;;;;5074247;28;20036;-73
2023/08/31 12:38:13;;;;;;;1.70;1.05;;;;;;;;;;5074067;28;20547;-72
2023/08/31 12:40:38;;;;;;;3.58;1.38;;;;;;;;;;5074719;28;20029;-73
2023/08/31 12:43:04;;;;;;;5.60;1.52;;;;;;;;;;5075259;28;20425;-73
2023/08/31 12:45:30;;;;;;;3.90;1.45;;;;;;;;;;5073772;28;20024;-73
2023/08/31 12:47:55;;;;;;;2.00;1.02;;;;;;;;;;5074024;28;20033;-73
2023/08/31 12:50:20;;;;;;;3.03;0.93;;;;;;;;;;5074526;28;20025;-72
2023/08/31 12:52:46;;;;;;;2.47;1.73;;;;;;;;;;5075315;28;20103;-73
2023/08/31 12:55:12;;;;;;;1.92;1.30;;;;;;;;;;5073683;28;20103;-74
2023/08/31 12:57:38;;;;;;;2.67;1.83;;;;;;;;;;5074939;28;20032;-73
2023/08/31 13:00:05;;;;;;;2.58;1.52;;;;;;;;;;5036967;28;20036;-73
2023/08/31 13:02:30;;;;;;;1.67;1.00;;;;;;;;;;5034158;28;20021;-73
2023/08/31 13:04:55;;;;;;;3.00;1.20;;;;;;;;;;5034610;28;20021;-73
2023/08/31 13:07:21;;;;;;;2.35;1.67;;;;;;;;;;5034783;28;20087;-73
2023/08/31 13:09:46;;;;;;;3.38;1.30;;;;;;;;;;5033218;28;20032;-73
2023/08/31 13:12:11;;;;;;;3.25;1.45;;;;;;;;;;5034989;28;20032;-73
2023/08/31 13:14:37;;;;;;;3.13;1.10;;;;;;;;;;5034023;28;20029;-73
2023/08/31 13:17:03;;;;;;;3.13;1.10;;;;;;;;;;5034651;28;20029;-73
2023/08/31 13:19:28;;;;;;;4.85;1.73;;;;;;;;;;5034513;28;20400;-73
2023/08/31 13:21:54;;;;;;;3.85;1.23;;;;;;;;;;5034306;28;20032;-73
2023/08/31 13:24:19;;;;;;;1.98;1.20;;;;;;;;;;5034149;28;20021;-73
2023/08/31 13:26:47;;;;;;;4.18;1.25;;;;;;;;;;5033870;28;20131;-73
2023/08/31 13:29:13;;;;;;;2.40;1.42;;;;;;;;;;5034998;28;20125;-72
2023/08/31 13:31:39;;;;;;;2.28;1.38;;;;;;;;;;5033392;28;20044;-74
2023/08/31 13:34:06;;;;;;;4.40;1.30;;;;;;;;;;5032984;28;20475;-74
2023/08/31 13:36:31;;;;;;;2.00;1.00;;;;;;;;;;5034110;28;20100;-74
2023/08/31 13:39:00;;;;;;;4.25;1.20;;;;;;;;;;5032058;28;20184;-74
2023/08/31 13:41:25;;;;;;;2.67;1.33;;;;;;;;;;5033551;28;20029;-73
2023/08/31 13:43:52;;;;;;;1.90;1.35;;;;;;;;;;5033617;28;20026;-73
2023/08/31 13:46:17;;;;;;;3.88;1.30;;;;;;;;;;5034268;28;20029;-74
2023/08/31 13:48:42;;;;;;;3.08;1.90;;;;;;;;;;5034011;28;20391;-74
2023/08/31 13:51:07;;;;;;;3.55;1.40;;;;;;;;;;5034014;28;20025;-74
2023/08/31 13:53:34;;;;;;;2.28;1.52;;;;;;;;;;5032004;28;20025;-73
2023/08/31 13:55:59;;;;;;;2.47;1.20;;;;;;;;;;5032462;28;20180;-73
2023/08/31 13:58:24;;;;;;;2.75;1.42;;;;;;;;;;5043765;28;20049;-73
2023/08/31 14:00:49;;;;;;;2.28;1.35;;;;;;;;;;5053480;28;20104;-73
2023/08/31 14:03:16;;;;;;;3.38;1.30;;;;;;;;;;5053082;28;20420;-73
2023/08/31 14:05:41;;;;;;;5.70;1.50;;;;;;;;;;5051130;28;20028;-73
2023/08/31 14:08:07;;;;;;;1.52;1.10;;;;;;;;;;5053773;28;20037;-74
2023/08/31 14:10:35;;;;;;;3.55;1.20;;;;;;;;;;5053512;28;20028;-73
2023/08/31 14:13:00;;;;;;;3.58;1.40;;;;;;;;;;5051710;28;20504;-73
2023/08/31 14:15:26;;;;;;;5.22;1.42;;;;;;;;;;5052300;28;20112;-72
2023/08/31 14:17:53;;;;;;;3.38;1.20;;;;;;;;;;5053248;28;20021;-71
2023/08/31 14:20:18;;;;;;;7.35;2.00;;;;;;;;;;5052108;28;20380;-71
2023/08/31 14:22:45;;;;;;;3.33;1.30;;;;;;;;;;5052715;28;20027;-71
2023/08/31 14:25:11;;;;;;;2.05;1.25;;;;;;;;;;5051805;28;20013;-74
2023/08/31 14:27:37;;;;;;;10.15;1.98;;;;;;;;;;5052419;28;20051;-74
2023/08/31 14:30:05;;;;;;;3.95;1.33;;;;;;;;;;5035532;28;20104;-74
2023/08/31 14:32:31;;;;;;;3.67;1.50;;;;;;;;;;5051901;28;20032;-74
2023/08/31 14:34:56;;;;;;;3.47;1.30;;;;;;;;;;5051843;28;20475;-74
2023/08/31 14:37:21;;;;;;;4.55;1.48;;;;;;;;;;5051180;28;20024;-73